sensor_id;sensor_type;location;lat;lon;timestamp;pressure;altitude;pressure_sealevel;temperature;humidity
47054;BME280;32811;52.382;5.270;2023-08-12T00:00:06;101808.84;;;18.03;100.00
47054;BME280;32811;52.382;5.270;2023-08-12T00:02:39;101805.38;;;18.01;100.00
47054;BME280;32811;52.382;5.270;2023-08-12T00:05:07;101796.69;;;17.99;100.00
47054;BME280;32811;52.382;5.270;2023-08-12T00:07:34;101799.25;;;18.03;100.00
47054;BME280;32811;52.382;5.270;2023-08-12T00:10:01;101790.59;;;17.98;100.00
47054;BME280;32811;52.382;5.270;2023-08-12T00:12:31;101803.59;;;18.04;100.00
47054;BME280;32811;52.382;5.270;2023-08-12T00:14:58;101785.47;;;17.89;100.00
47054;BME280;32811;52.382;5.270;2023-08-12T00:17:25;101804.50;;;18.02;100.00
47054;BME280;32811;52.382;5.270;2023-08-12T00:19:52;101795.84;;;17.97;100.00
47054;BME280;32811;52.382;5.270;2023-08-12T00:22:19;101807.97;;;18.02;100.00
47054;BME280;32811;52.382;5.270;2023-08-12T00:24:46;101812.31;;;18.05;100.00
47054;BME280;32811;52.382;5.270;2023-08-12T00:27:12;101792.34;;;17.98;100.00
47054;BME280;32811;52.382;5.270;2023-08-12T00:29:39;101797.53;;;18.01;100.00
47054;BME280;32811;52.382;5.270;2023-08-12T00:32:09;101802.75;;;18.02;100.00
47054;BME280;32811;52.382;5.270;2023-08-12T00:34:36;101808.00;;;17.99;100.00
47054;BME280;32811;52.382;5.270;2023-08-12T00:37:02;101805.38;;;18.01;100.00
47054;BME280;32811;52.382;5.270;2023-08-12T00:39:29;101783.72;;;17.88;100.00
47054;BME280;32811;52.382;5.270;2023-08-12T00:41:56;101795.03;;;17.90;100.00
47054;BME280;32811;52.382;5.270;2023-08-12T00:44:22;101796.84;;;17.87;100.00
47054;BME280;32811;52.382;5.270;2023-08-12T00:46:49;101797.63;;;17.92;100.00
47054;BME280;32811;52.382;5.270;2023-08-12T00:49:17;101773.34;;;17.80;100.00
47054;BME280;32811;52.382;5.270;2023-08-12T00:51:44;101791.63;;;17.87;100.00
47054;BME280;32811;52.382;5.270;2023-08-12T00:54:14;101794.28;;;17.82;100.00
47054;BME280;32811;52.382;5.270;2023-08-12T00:56:41;101778.69;;;17.71;100.00
47054;BME280;32811;52.382;5.270;2023-08-12T00:59:09;101792.47;;;17.89;100.00
47054;BME280;32811;52.382;5.270;2023-08-12T01:01:40;101780.31;;;17.86;100.00
47054;BME280;32811;52.382;5.270;2023-08-12T01:04:10;101776.84;;;17.82;100.00
47054;BME280;32811;52.382;5.270;2023-08-12T01:06:37;101748.22;;;17.70;100.00
47054;BME280;32811;52.382;5.270;2023-08-12T01:09:05;101763.69;;;17.93;100.00
47054;BME280;32811;52.382;5.270;2023-08-12T01:14:30;101776.75;;;17.93;100.00
47054;BME280;32811;52.382;5.270;2023-08-12T01:17:02;101775.84;;;17.93;100.00
47054;BME280;32811;52.382;5.270;2023-08-12T01:19:37;101766.28;;;17.93;100.00
47054;BME280;32811;52.382;5.270;2023-08-12T01:22:06;101761.94;;;17.94;100.00
47054;BME280;32811;52.382;5.270;2023-08-12T01:24:37;101768.78;;;18.01;100.00
47054;BME280;32811;52.382;5.270;2023-08-12T01:27:05;101761.84;;;18.00;100.00
47054;BME280;32811;52.382;5.270;2023-08-12T01:29:34;101747.97;;;17.95;100.00
47054;BME280;32811;52.382;5.270;2023-08-12T01:32:09;101762.66;;;18.03;100.00
47054;BME280;32811;52.382;5.270;2023-08-12T01:37:15;101745.28;;;17.99;100.00
47054;BME280;32811;52.382;5.270;2023-08-12T01:39:45;101747.09;;;17.97;100.00
47054;BME280;32811;52.382;5.270;2023-08-12T01:42:13;101742.75;;;17.95;100.00
47054;BME280;32811;52.382;5.270;2023-08-12T01:44:40;101743.63;;;17.95;100.00
47054;BME280;32811;52.382;5.270;2023-08-12T01:47:09;101743.69;;;17.91;100.00
47054;BME280;32811;52.382;5.270;2023-08-12T01:49:36;101743.75;;;17.84;100.00
47054;BME280;32811;52.382;5.270;2023-08-12T01:52:03;101735.09;;;17.78;100.00
47054;BME280;32811;52.382;5.270;2023-08-12T01:54:29;101733.38;;;17.72;100.00
47054;BME280;32811;52.382;5.270;2023-08-12T01:57:04;101732.53;;;17.73;100.00
47054;BME280;32811;52.382;5.270;2023-08-12T01:59:35;101728.22;;;17.71;100.00
47054;BME280;32811;52.382;5.270;2023-08-12T02:02:02;101737.81;;;17.67;100.00
47054;BME280;32811;52.382;5.270;2023-08-12T02:04:29;101728.22;;;17.68;100.00
47054;BME280;32811;52.382;5.270;2023-08-12T02:06:56;101721.34;;;17.60;100.00
47054;BME280;32811;52.382;5.270;2023-08-12T02:09:23;101709.19;;;17.59;100.00
47054;BME280;32811;52.382;5.270;2023-08-12T02:11:49;101728.13;;;17.77;100.00
47054;BME280;32811;52.382;5.270;2023-08-12T02:14:16;101704.66;;;17.72;100.00
47054;BME280;32811;52.382;5.270;2023-08-12T02:16:43;101711.56;;;17.79;100.00
47054;BME280;32811;52.382;5.270;2023-08-12T02:19:09;101724.59;;;17.81;100.00
47054;BME280;32811;52.382;5.270;2023-08-12T02:21:36;101719.41;;;17.78;100.00
47054;BME280;32811;52.382;5.270;2023-08-12T02:24:03;101723.75;;;17.82;100.00
47054;BME280;32811;52.382;5.270;2023-08-12T02:26:30;101716.72;;;17.86;100.00
47054;BME280;32811;52.382;5.270;2023-08-12T02:28:57;101705.47;;;17.82;100.00
47054;BME280;32811;52.382;5.270;2023-08-12T02:31:23;101714.06;;;17.93;100.00
47054;BME280;32811;52.382;5.270;2023-08-12T02:33:50;101691.41;;;17.94;100.00
47054;BME280;32811;52.382;5.270;2023-08-12T02:36:17;101688.78;;;17.95;100.00
47054;BME280;32811;52.382;5.270;2023-08-12T02:38:43;101696.50;;;18.01;100.00
47054;BME280;32811;52.382;5.270;2023-08-12T02:41:10;101698.22;;;18.05;100.00
47054;BME280;32811;52.382;5.270;2023-08-12T02:43:37;101689.53;;;18.03;100.00
47054;BME280;32811;52.382;5.270;2023-08-12T02:46:03;101683.44;;;18.04;100.00
47054;BME280;32811;52.382;5.270;2023-08-12T02:48:30;101701.53;;;18.17;100.00
47054;BME280;32811;52.382;5.270;2023-08-12T02:50:57;101692.84;;;18.16;100.00
47054;BME280;32811;52.382;5.270;2023-08-12T02:53:24;101692.84;;;18.18;100.00
47054;BME280;32811;52.382;5.270;2023-08-12T02:55:50;101682.31;;;18.21;100.00
47054;BME280;32811;52.382;5.270;2023-08-12T02:58:17;101678.00;;;18.20;100.00
47054;BME280;32811;52.382;5.270;2023-08-12T03:00:43;101670.13;;;18.21;100.00
47054;BME280;32811;52.382;5.270;2023-08-12T03:03:10;101675.34;;;18.23;100.00
47054;BME280;32811;52.382;5.270;2023-08-12T03:05:37;101677.81;;;18.31;100.00
47054;BME280;32811;52.382;5.270;2023-08-12T03:08:04;101682.13;;;18.36;100.00
47054;BME280;32811;52.382;5.270;2023-08-12T03:10:33;101663.84;;;18.35;100.00
47054;BME280;32811;52.382;5.270;2023-08-12T03:13:00;101669.81;;;18.41;100.00
47054;BME280;32811;52.382;5.270;2023-08-12T03:15:26;101667.97;;;18.50;100.00
47054;BME280;32811;52.382;5.270;2023-08-12T03:17:53;101664.53;;;18.48;100.00
47054;BME280;32811;52.382;5.270;2023-08-12T03:20:20;101652.41;;;18.42;100.00
47054;BME280;32811;52.382;5.270;2023-08-12T03:22:46;101654.13;;;18.44;100.00
47054;BME280;32811;52.382;5.270;2023-08-12T03:25:13;101654.97;;;18.45;100.00
47054;BME280;32811;52.382;5.270;2023-08-12T03:27:43;101642.72;;;18.49;100.00
47054;BME280;32811;52.382;5.270;2023-08-12T03:30:10;101647.06;;;18.50;100.00
47054;BME280;32811;52.382;5.270;2023-08-12T03:32:37;101642.69;;;18.50;100.00
47054;BME280;32811;52.382;5.270;2023-08-12T03:35:04;101638.38;;;18.48;100.00
47054;BME280;32811;52.382;5.270;2023-08-12T03:37:31;101633.16;;;18.48;100.00
47054;BME280;32811;52.382;5.270;2023-08-12T03:39:57;101640.91;;;18.54;100.00
47054;BME280;32811;52.382;5.270;2023-08-12T03:42:24;101640.94;;;18.51;100.00
47054;BME280;32811;52.382;5.270;2023-08-12T03:44:50;101643.50;;;18.54;100.00
47054;BME280;32811;52.382;5.270;2023-08-12T03:47:17;101644.38;;;18.54;100.00
47054;BME280;32811;52.382;5.270;2023-08-12T03:49:48;101633.00;;;18.57;100.00
47054;BME280;32811;52.382;5.270;2023-08-12T03:52:15;101635.59;;;18.57;100.00
47054;BME280;32811;52.382;5.270;2023-08-12T03:54:42;101635.59;;;18.57;100.00
47054;BME280;32811;52.382;5.270;2023-08-12T03:57:09;101622.63;;;18.51;100.00
47054;BME280;32811;52.382;5.270;2023-08-12T03:59:36;101628.63;;;18.57;100.00
47054;BME280;32811;52.382;5.270;2023-08-12T04:02:03;101617.28;;;18.58;100.00
47054;BME280;32811;52.382;5.270;2023-08-12T04:04:30;101619.09;;;18.55;100.00
47054;BME280;32811;52.382;5.270;2023-08-12T04:06:57;101621.75;;;18.53;100.00
47054;BME280;32811;52.382;5.270;2023-08-12T04:09:23;101624.38;;;18.52;100.00
47054;BME280;32811;52.382;5.270;2023-08-12T04:11:50;101631.31;;;18.53;100.00
47054;BME280;32811;52.382;5.270;2023-08-12T04:14:17;101631.28;;;18.56;100.00
47054;BME280;32811;52.382;5.270;2023-08-12T04:16:44;101624.38;;;18.52;100.00
47054;BME280;32811;52.382;5.270;2023-08-12T04:19:10;101620.94;;;18.48;100.00
47054;BME280;32811;52.382;5.270;2023-08-12T04:21:37;101623.53;;;18.51;100.00
47054;BME280;32811;52.382;5.270;2023-08-12T04:24:04;101622.69;;;18.48;100.00
47054;BME280;32811;52.382;5.270;2023-08-12T04:26:30;101607.91;;;18.46;100.00
47054;BME280;32811;52.382;5.270;2023-08-12T04:28:57;101602.63;;;18.50;100.00
47054;BME280;32811;52.382;5.270;2023-08-12T04:31:23;101600.09;;;18.43;100.00
47054;BME280;32811;52.382;5.270;2023-08-12T04:33:50;101601.84;;;18.43;100.00
47054;BME280;32811;52.382;5.270;2023-08-12T04:36:19;101582.78;;;18.36;100.00
47054;BME280;32811;52.382;5.270;2023-08-12T04:38:46;101593.94;;;18.46;100.00
47054;BME280;32811;52.382;5.270;2023-08-12T04:41:13;101600.84;;;18.50;100.00
47054;BME280;32811;52.382;5.270;2023-08-12T04:43:39;101565.28;;;18.41;100.00
47054;BME280;32811;52.382;5.270;2023-08-12T04:46:06;101576.47;;;18.51;100.00
47054;BME280;32811;52.382;5.270;2023-08-12T04:48:33;101586.78;;;18.57;100.00
47054;BME280;32811;52.382;5.270;2023-08-12T04:50:59;101584.97;;;18.62;100.00
47054;BME280;32811;52.382;5.270;2023-08-12T04:53:28;101571.94;;;18.59;100.00
47054;BME280;32811;52.382;5.270;2023-08-12T04:55:55;101567.63;;;18.58;100.00
47054;BME280;32811;52.382;5.270;2023-08-12T04:58:23;101562.31;;;18.63;100.00
47054;BME280;32811;52.382;5.270;2023-08-12T05:00:50;101567.38;;;18.72;100.00
47054;BME280;32811;52.382;5.270;2023-08-12T05:03:18;101569.97;;;18.72;100.00
47054;BME280;32811;52.382;5.270;2023-08-12T05:05:51;101563.13;;;18.66;100.00
47054;BME280;32811;52.382;5.270;2023-08-12T05:08:18;101569.97;;;18.72;100.00
47054;BME280;32811;52.382;5.270;2023-08-12T05:10:49;101561.28;;;18.72;100.00
47054;BME280;32811;52.382;5.270;2023-08-12T05:13:17;101563.91;;;18.72;100.00
47054;BME280;32811;52.382;5.270;2023-08-12T05:15:47;101554.31;;;18.71;100.00
47054;BME280;32811;52.382;5.270;2023-08-12T05:18:14;101553.44;;;18.70;100.00
47054;BME280;32811;52.382;5.270;2023-08-12T05:20:42;101556.84;;;18.75;100.00
47054;BME280;32811;52.382;5.270;2023-08-12T05:23:12;101555.13;;;18.76;100.00
47054;BME280;32811;52.382;5.270;2023-08-12T05:25:39;101560.34;;;18.76;100.00
47054;BME280;32811;52.382;5.270;2023-08-12T05:28:06;101549.88;;;18.76;100.00
47054;BME280;32811;52.382;5.270;2023-08-12T05:30:34;101556.81;;;18.80;100.00
47054;BME280;32811;52.382;5.270;2023-08-12T05:33:01;101537.75;;;18.70;100.00
47054;BME280;32811;52.382;5.270;2023-08-12T05:35:33;101554.03;;;18.87;100.00
47054;BME280;32811;52.382;5.270;2023-08-12T05:37:59;101548.88;;;18.84;100.00
47054;BME280;32811;52.382;5.270;2023-08-12T05:40:26;101567.06;;;18.91;100.00
47054;BME280;32811;52.382;5.270;2023-08-12T05:42:53;101560.94;;;18.92;100.00
47054;BME280;32811;52.382;5.270;2023-08-12T05:45:20;101554.03;;;18.89;100.00
47054;BME280;32811;52.382;5.270;2023-08-12T05:47:47;101562.66;;;18.93;100.00
47054;BME280;32811;52.382;5.270;2023-08-12T05:50:14;101555.72;;;18.92;100.00
47054;BME280;32811;52.382;5.270;2023-08-12T05:52:40;101563.50;;;18.93;100.00
47054;BME280;32811;52.382;5.270;2023-08-12T05:55:07;101554.81;;;18.93;100.00
47054;BME280;32811;52.382;5.270;2023-08-12T05:57:34;101565.94;;;19.04;100.00
47054;BME280;32811;52.382;5.270;2023-08-12T06:00:01;101543.47;;;18.94;100.00
47054;BME280;32811;52.382;5.270;2023-08-12T06:02:27;101547.53;;;19.08;100.00
47054;BME280;32811;52.382;5.270;2023-08-12T06:04:54;101550.13;;;19.10;100.00
47054;BME280;32811;52.382;5.270;2023-08-12T06:07:21;101558.78;;;19.14;100.00
47054;BME280;32811;52.382;5.270;2023-08-12T06:09:49;101562.25;;;19.14;100.00
47054;BME280;32811;52.382;5.270;2023-08-12T06:12:17;101555.44;;;19.07;100.00
47054;BME280;32811;52.382;5.270;2023-08-12T06:14:43;101556.31;;;19.06;100.00
47054;BME280;32811;52.382;5.270;2023-08-12T06:17:10;101567.59;;;19.10;100.00
47054;BME280;32811;52.382;5.270;2023-08-12T06:19:36;101570.28;;;19.05;100.00
47054;BME280;32811;52.382;5.270;2023-08-12T06:22:03;101573.84;;;19.01;100.00
47054;BME280;32811;52.382;5.270;2023-08-12T06:24:30;101575.56;;;19.02;100.00
47054;BME280;32811;52.382;5.270;2023-08-12T06:26:57;101570.41;;;18.99;100.00
47054;BME280;32811;52.382;5.270;2023-08-12T06:29:23;101575.56;;;19.02;100.00
47054;BME280;32811;52.382;5.270;2023-08-12T06:31:50;101571.31;;;18.98;100.00
47054;BME280;32811;52.382;5.270;2023-08-12T06:34:17;101580.78;;;19.02;100.00
47054;BME280;32811;52.382;5.270;2023-08-12T06:36:44;101578.25;;;18.99;100.00
47054;BME280;32811;52.382;5.270;2023-08-12T06:39:10;101578.16;;;19.05;100.00
47054;BME280;32811;52.382;5.270;2023-08-12T06:41:37;101569.56;;;18.97;100.00
47054;BME280;32811;52.382;5.270;2023-08-12T06:44:04;101540.13;;;18.85;100.00
47054;BME280;32811;52.382;5.270;2023-08-12T06:46:31;101546.03;;;18.95;100.00
47054;BME280;32811;52.382;5.270;2023-08-12T06:48:58;101535.63;;;18.94;100.00
47054;BME280;32811;52.382;5.270;2023-08-12T06:51:25;101534.78;;;18.92;100.00
47054;BME280;32811;52.382;5.270;2023-08-12T06:53:52;101538.28;;;18.91;100.00
47054;BME280;32811;52.382;5.270;2023-08-12T06:56:18;101533.22;;;18.83;100.00
47054;BME280;32811;52.382;5.270;2023-08-12T06:58:45;101545.38;;;18.85;100.00
47054;BME280;32811;52.382;5.270;2023-08-12T07:01:11;101536.59;;;18.88;100.00
47054;BME280;32811;52.382;5.270;2023-08-12T07:03:41;101521.06;;;18.80;100.00
47054;BME280;32811;52.382;5.270;2023-08-12T07:06:07;101526.28;;;18.80;100.00
47054;BME280;32811;52.382;5.270;2023-08-12T07:08:34;101520.22;;;18.77;100.00
47054;BME280;32811;52.382;5.270;2023-08-12T07:11:01;101522.84;;;18.75;100.00
47054;BME280;32811;52.382;5.270;2023-08-12T07:13:27;101517.69;;;18.72;100.00
47054;BME280;32811;52.382;5.270;2023-08-12T07:15:54;101521.13;;;18.76;100.00
47054;BME280;32811;52.382;5.270;2023-08-12T07:18:21;101507.22;;;18.72;100.00
47054;BME280;32811;52.382;5.270;2023-08-12T07:20:49;101504.78;;;18.63;100.00
47054;BME280;32811;52.382;5.270;2023-08-12T07:23:16;101516.91;;;18.67;100.00
47054;BME280;32811;52.382;5.270;2023-08-12T07:25:46;101513.47;;;18.65;100.00
47054;BME280;32811;52.382;5.270;2023-08-12T07:28:13;101528.06;;;18.75;100.00
47054;BME280;32811;52.382;5.270;2023-08-12T07:30:40;101522.03;;;18.73;100.00
47054;BME280;32811;52.382;5.270;2023-08-12T07:33:06;101528.06;;;18.77;100.00
47054;BME280;32811;52.382;5.270;2023-08-12T07:35:33;101541.13;;;18.80;100.00
47054;BME280;32811;52.382;5.270;2023-08-12T07:38:00;101529.81;;;18.76;100.00
47054;BME280;32811;52.382;5.270;2023-08-12T07:40:27;101519.47;;;18.70;100.00
47054;BME280;32811;52.382;5.270;2023-08-12T07:42:54;101530.69;;;18.75;100.00
47054;BME280;32811;52.382;5.270;2023-08-12T07:45:21;101522.84;;;18.75;100.00
47054;BME280;32811;52.382;5.270;2023-08-12T07:47:51;101514.13;;;18.75;100.00
47054;BME280;32811;52.382;5.270;2023-08-12T07:50:18;101520.22;;;18.78;100.00
47054;BME280;32811;52.382;5.270;2023-08-12T07:52:44;101519.34;;;18.76;100.00
47054;BME280;32811;52.382;5.270;2023-08-12T07:55:11;101518.47;;;18.79;100.00
47054;BME280;32811;52.382;5.270;2023-08-12T07:57:39;101519.31;;;18.79;100.00
47054;BME280;32811;52.382;5.270;2023-08-12T08:00:06;101496.03;;;18.64;100.00
47054;BME280;32811;52.382;5.270;2023-08-12T08:02:34;101521.97;;;18.78;100.00
47054;BME280;32811;52.382;5.270;2023-08-12T08:05:01;101521.13;;;18.76;100.00
47054;BME280;32811;52.382;5.270;2023-08-12T08:07:29;101527.16;;;18.79;100.00
47054;BME280;32811;52.382;5.270;2023-08-12T08:09:55;101526.31;;;18.79;100.00
47054;BME280;32811;52.382;5.270;2023-08-12T08:12:22;101514.22;;;18.70;100.00
47054;BME280;32811;52.382;5.270;2023-08-12T08:14:49;101531.53;;;18.80;100.00
47054;BME280;32811;52.382;5.270;2023-08-12T08:17:15;101531.44;;;18.83;100.00
47054;BME280;32811;52.382;5.270;2023-08-12T08:19:42;101533.28;;;18.77;100.00
47054;BME280;32811;52.382;5.270;2023-08-12T08:22:09;101537.66;;;18.78;100.00
47054;BME280;32811;52.382;5.270;2023-08-12T08:24:36;101535.91;;;18.77;100.00
47054;BME280;32811;52.382;5.270;2023-08-12T08:27:03;101538.53;;;18.78;100.00
47054;BME280;32811;52.382;5.270;2023-08-12T08:29:30;101528.94;;;18.77;100.00
47054;BME280;32811;52.382;5.270;2023-08-12T08:31:57;101534.97;;;18.82;100.00
47054;BME280;32811;52.382;5.270;2023-08-12T08:34:24;101530.59;;;18.83;100.00
47054;BME280;32811;52.382;5.270;2023-08-12T08:36:50;101541.84;;;18.86;100.00
47054;BME280;32811;52.382;5.270;2023-08-12T08:39:18;101540.94;;;18.89;100.00
47054;BME280;32811;52.382;5.270;2023-08-12T08:41:47;101545.28;;;18.88;100.00
47054;BME280;32811;52.382;5.270;2023-08-12T08:44:14;101554.91;;;18.88;100.00
47054;BME280;32811;52.382;5.270;2023-08-12T08:46:42;101552.31;;;18.86;100.00
47054;BME280;32811;52.382;5.270;2023-08-12T08:49:11;101557.25;;;18.54;100.00
47054;BME280;32811;52.382;5.270;2023-08-12T08:51:38;101556.50;;;17.90;100.00
47054;BME280;32811;52.382;5.270;2023-08-12T08:54:05;101557.59;;;17.72;100.00
47054;BME280;32811;52.382;5.270;2023-08-12T08:56:32;101573.66;;;17.41;100.00
47054;BME280;32811;52.382;5.270;2023-08-12T08:59:01;101547.09;;;17.08;100.00
47054;BME280;32811;52.382;5.270;2023-08-12T09:01:28;101581.81;;;17.12;100.00
47054;BME280;32811;52.382;5.270;2023-08-12T09:03:57;101577.50;;;17.11;100.00
47054;BME280;32811;52.382;5.270;2023-08-12T09:06:25;101551.63;;;16.91;100.00
47054;BME280;32811;52.382;5.270;2023-08-12T09:08:52;101555.88;;;16.98;100.00
47054;BME280;32811;52.382;5.270;2023-08-12T09:11:20;101553.31;;;16.95;100.00
47054;BME280;32811;52.382;5.270;2023-08-12T09:13:47;101549.03;;;16.89;100.00
47054;BME280;32811;52.382;5.270;2023-08-12T09:16:15;101546.41;;;16.88;100.00
47054;BME280;32811;52.382;5.270;2023-08-12T09:18:42;101560.28;;;16.93;100.00
47054;BME280;32811;52.382;5.270;2023-08-12T09:21:10;101568.97;;;16.93;100.00
47054;BME280;32811;52.382;5.270;2023-08-12T09:23:38;101578.53;;;16.93;100.00
47054;BME280;32811;52.382;5.270;2023-08-12T09:26:15;101580.09;;;17.09;100.00
47054;BME280;32811;52.382;5.270;2023-08-12T09:28:42;101579.19;;;17.13;100.00
47054;BME280;32811;52.382;5.270;2023-08-12T09:31:23;101576.53;;;17.18;100.00
47054;BME280;32811;52.382;5.270;2023-08-12T09:33:51;101565.19;;;17.20;100.00
47054;BME280;32811;52.382;5.270;2023-08-12T09:36:21;101563.25;;;17.38;100.00
47054;BME280;32811;52.382;5.270;2023-08-12T09:38:47;101562.34;;;17.40;100.00
47054;BME280;32811;52.382;5.270;2023-08-12T09:41:15;101564.84;;;17.50;100.00
47054;BME280;32811;52.382;5.270;2023-08-12T09:43:42;101566.28;;;17.74;100.00
47054;BME280;32811;52.382;5.270;2023-08-12T09:46:12;101555.78;;;17.77;100.00
47054;BME280;32811;52.382;5.270;2023-08-12T09:48:42;101561.84;;;17.82;100.00
47054;BME280;32811;52.382;5.270;2023-08-12T09:51:09;101553.03;;;17.89;100.00
47054;BME280;32811;52.382;5.270;2023-08-12T09:53:37;101543.44;;;17.91;100.00
47054;BME280;32811;52.382;5.270;2023-08-12T09:56:06;101542.50;;;17.95;100.00
47054;BME280;32811;52.382;5.270;2023-08-12T09:58:35;101556.06;;;18.19;100.00
47054;BME280;32811;52.382;5.270;2023-08-12T10:01:03;101567.03;;;18.39;100.00
47054;BME280;32811;52.382;5.270;2023-08-12T10:03:33;101557.25;;;18.54;100.00
47054;BME280;32811;52.382;5.270;2023-08-12T10:06:01;101569.22;;;18.67;100.00
47054;BME280;32811;52.382;5.270;2023-08-12T10:08:29;101560.34;;;18.74;100.00
47054;BME280;32811;52.382;5.270;2023-08-12T10:10:57;101554.97;;;18.85;100.00
47054;BME280;32811;52.382;5.270;2023-08-12T10:13:39;101557.38;;;18.96;100.00
47054;BME280;32811;52.382;5.270;2023-08-12T10:16:06;101562.16;;;19.19;100.00
47054;BME280;32811;52.382;5.270;2023-08-12T10:18:35;101558.47;;;19.29;100.00
47054;BME280;32811;52.382;5.270;2023-08-12T10:21:02;101552.16;;;19.38;100.00
47054;BME280;32811;52.382;5.270;2023-08-12T10:23:29;101569.19;;;19.59;100.00
47054;BME280;32811;52.382;5.270;2023-08-12T10:25:57;101541.16;;;19.62;100.00
47054;BME280;32811;52.382;5.270;2023-08-12T10:28:26;101557.34;;;19.83;100.00
47054;BME280;32811;52.382;5.270;2023-08-12T10:30:52;101553.13;;;19.76;100.00
47054;BME280;32811;52.382;5.270;2023-08-12T10:33:19;101555.56;;;19.85;100.00
47054;BME280;32811;52.382;5.270;2023-08-12T10:35:47;101544.88;;;19.94;100.00
47054;BME280;32811;52.382;5.270;2023-08-12T10:38:17;101563.28;;;20.27;100.00
47054;BME280;32811;52.382;5.270;2023-08-12T10:40:44;101540.84;;;20.17;100.00
47054;BME280;32811;52.382;5.270;2023-08-12T10:43:12;101537.56;;;20.07;100.00
47054;BME280;32811;52.382;5.270;2023-08-12T10:45:51;101552.91;;;20.22;100.00
47054;BME280;32811;52.382;5.270;2023-08-12T10:48:20;101551.09;;;20.26;100.00
47054;BME280;32811;52.382;5.270;2023-08-12T10:50:55;101564.81;;;20.36;100.00
47054;BME280;32811;52.382;5.270;2023-08-12T10:53:25;101547.53;;;20.28;100.00
47054;BME280;32811;52.382;5.270;2023-08-12T10:55:56;101540.28;;;20.38;100.00
47054;BME280;32811;52.382;5.270;2023-08-12T10:58:28;101549.16;;;20.68;100.00
47054;BME280;32811;52.382;5.270;2023-08-12T11:00:56;101523.41;;;20.83;100.00
47054;BME280;32811;52.382;5.270;2023-08-12T11:03:23;101536.91;;;21.02;100.00
47054;BME280;32811;52.382;5.270;2023-08-12T11:05:50;101551.09;;;20.94;100.00
47054;BME280;32811;52.382;5.270;2023-08-12T11:08:17;101543.09;;;20.99;100.00
47054;BME280;32811;52.382;5.270;2023-08-12T11:10:44;101537.00;;;20.66;100.00
47054;BME280;32811;52.382;5.270;2023-08-12T11:13:10;101524.97;;;20.59;100.00
47054;BME280;32811;52.382;5.270;2023-08-12T11:15:40;101530.44;;;20.48;100.00
47054;BME280;32811;52.382;5.270;2023-08-12T11:18:10;101528.09;;;20.71;100.00
47054;BME280;32811;52.382;5.270;2023-08-12T11:20:37;101527.50;;;20.93;100.00
47054;BME280;32811;52.382;5.270;2023-08-12T11:23:05;101536.25;;;20.93;100.00
47054;BME280;32811;52.382;5.270;2023-08-12T11:25:33;101532.72;;;20.94;100.00
47054;BME280;32811;52.382;5.270;2023-08-12T11:28:00;101545.44;;;20.77;100.00
47054;BME280;32811;52.382;5.270;2023-08-12T11:30:27;101532.38;;;20.74;100.00
47054;BME280;32811;52.382;5.270;2023-08-12T11:32:59;101526.75;;;20.55;100.00
47054;BME280;32811;52.382;5.270;2023-08-12T11:35:25;101534.22;;;20.72;100.00
47054;BME280;32811;52.382;5.270;2023-08-12T11:37:54;101522.44;;;20.87;100.00
47054;BME280;32811;52.382;5.270;2023-08-12T11:40:23;101528.19;;;21.00;100.00
47054;BME280;32811;52.382;5.270;2023-08-12T11:42:51;101543.13;;;20.98;100.00
47054;BME280;32811;52.382;5.270;2023-08-12T11:45:19;101507.31;;;20.64;100.00
47054;BME280;32811;52.382;5.270;2023-08-12T11:47:47;101530.44;;;20.82;100.00
47054;BME280;32811;52.382;5.270;2023-08-12T11:50:26;101537.63;;;21.07;100.00
47054;BME280;32811;52.382;5.270;2023-08-12T11:52:55;101528.03;;;21.06;100.00
47054;BME280;32811;52.382;5.270;2023-08-12T11:55:22;101532.03;;;21.19;100.00
47054;BME280;32811;52.382;5.270;2023-08-12T11:57:50;101534.88;;;21.11;100.00
47054;BME280;32811;52.382;5.270;2023-08-12T12:00:18;101513.00;;;21.11;100.00
47054;BME280;32811;52.382;5.270;2023-08-12T12:02:50;101540.63;;;21.24;100.00
47054;BME280;32811;52.382;5.270;2023-08-12T12:05:22;101526.34;;;21.34;100.00
47054;BME280;32811;52.382;5.270;2023-08-12T12:07:50;101538.41;;;21.42;100.00
47054;BME280;32811;52.382;5.270;2023-08-12T12:10:27;101531.25;;;21.47;100.00
47054;BME280;32811;52.382;5.270;2023-08-12T12:13:00;101524.06;;;21.52;100.00
47054;BME280;32811;52.382;5.270;2023-08-12T12:15:27;101526.09;;;21.44;100.00
47054;BME280;32811;52.382;5.270;2023-08-12T12:17:53;101517.44;;;21.39;100.00
47054;BME280;32811;52.382;5.270;2023-08-12T12:20:20;101518.06;;;21.48;100.00
47054;BME280;32811;52.382;5.270;2023-08-12T12:22:48;101529.28;;;21.53;100.00
47054;BME280;32811;52.382;5.270;2023-08-12T12:25:16;101525.41;;;21.35;100.00
47054;BME280;32811;52.382;5.270;2023-08-12T12:27:46;101519.31;;;21.35;100.00
47054;BME280;32811;52.382;5.270;2023-08-12T12:30:14;101538.09;;;21.52;100.00
47054;BME280;32811;52.382;5.270;2023-08-12T12:32:41;101540.56;;;21.57;100.00
47054;BME280;32811;52.382;5.270;2023-08-12T12:35:08;101529.53;;;21.46;100.00
47054;BME280;32811;52.382;5.270;2023-08-12T12:37:35;101530.44;;;21.45;100.00
47054;BME280;32811;52.382;5.270;2023-08-12T12:40:03;101540.25;;;21.36;100.00
47054;BME280;32811;52.382;5.270;2023-08-12T12:42:31;101542.81;;;21.10;100.00
47054;BME280;32811;52.382;5.270;2023-08-12T12:44:58;101551.66;;;21.06;100.00
47054;BME280;32811;52.382;5.270;2023-08-12T12:47:25;101543.09;;;21.30;100.00